sensor_id;sensor_type;location;lat;lon;timestamp;temperature;humidity
2957;DHT22;1488;51.548;7.222;2023-03-04T11:55:23;20.90;53.10
2957;DHT22;1488;51.548;7.222;2023-03-04T11:57:58;20.90;53.30
2957;DHT22;1488;51.548;7.222;2023-03-04T12:00:35;21.00;53.60
2957;DHT22;1488;51.548;7.222;2023-03-04T12:03:19;21.00;53.50
2957;DHT22;1488;51.548;7.222;2023-03-04T12:05:56;21.00;53.70
2957;DHT22;1488;51.548;7.222;2023-03-04T12:08:32;21.00;53.70
2957;DHT22;1488;51.548;7.222;2023-03-04T12:11:09;21.00;53.70
2957;DHT22;1488;51.548;7.222;2023-03-04T12:13:57;21.00;53.70
2957;DHT22;1488;51.548;7.222;2023-03-04T12:16:50;21.00;54.10
2957;DHT22;1488;51.548;7.222;2023-03-04T12:19:29;21.00;54.10
2957;DHT22;1488;51.548;7.222;2023-03-04T12:32:19;21.00;53.70
2957;DHT22;1488;51.548;7.222;2023-03-04T13:40:28;20.90;54.70
2957;DHT22;1488;51.548;7.222;2023-03-04T13:43:26;20.90;54.40
2957;DHT22;1488;51.548;7.222;2023-03-04T13:45:53;20.90;54.40
2957;DHT22;1488;51.548;7.222;2023-03-04T13:48:29;20.90;54.50
2957;DHT22;1488;51.548;7.222;2023-03-04T13:50:57;20.90;55.00
2957;DHT22;1488;51.548;7.222;2023-03-04T13:53:32;20.90;54.00
2957;DHT22;1488;51.548;7.222;2023-03-04T13:56:11;20.90;53.70
2957;DHT22;1488;51.548;7.222;2023-03-04T13:58:40;20.90;53.80
2957;DHT22;1488;51.548;7.222;2023-03-04T14:01:23;21.00;54.20
2957;DHT22;1488;51.548;7.222;2023-03-04T14:03:51;21.00;54.40
2957;DHT22;1488;51.548;7.222;2023-03-04T14:06:19;21.00;54.30
2957;DHT22;1488;51.548;7.222;2023-03-04T14:08:48;21.00;54.40
2957;DHT22;1488;51.548;7.222;2023-03-04T14:11:28;21.00;54.50
2957;DHT22;1488;51.548;7.222;2023-03-04T14:14:02;21.10;54.50
2957;DHT22;1488;51.548;7.222;2023-03-04T14:16:33;21.10;54.50
2957;DHT22;1488;51.548;7.222;2023-03-04T14:19:03;21.10;54.40
2957;DHT22;1488;51.548;7.222;2023-03-04T14:21:31;21.10;54.30
2957;DHT22;1488;51.548;7.222;2023-03-04T14:24:04;21.10;54.30
2957;DHT22;1488;51.548;7.222;2023-03-04T14:26:32;21.10;54.30
2957;DHT22;1488;51.548;7.222;2023-03-04T14:28:59;21.20;54.30
2957;DHT22;1488;51.548;7.222;2023-03-04T14:31:29;21.20;54.30
2957;DHT22;1488;51.548;7.222;2023-03-04T14:33:58;21.20;54.20
2957;DHT22;1488;51.548;7.222;2023-03-04T14:36:30;21.20;54.20
2957;DHT22;1488;51.548;7.222;2023-03-04T14:38:59;21.20;54.20
2957;DHT22;1488;51.548;7.222;2023-03-04T14:41:28;21.40;54.40
2957;DHT22;1488;51.548;7.222;2023-03-04T14:44:04;21.20;54.20
2957;DHT22;1488;51.548;7.222;2023-03-04T14:46:36;21.30;54.20
2957;DHT22;1488;51.548;7.222;2023-03-04T14:49:10;21.40;54.30
2957;DHT22;1488;51.548;7.222;2023-03-04T14:51:44;21.30;54.20
2957;DHT22;1488;51.548;7.222;2023-03-04T14:54:28;21.30;54.20
2957;DHT22;1488;51.548;7.222;2023-03-04T14:56:56;21.30;54.20
2957;DHT22;1488;51.548;7.222;2023-03-04T14:59:32;21.30;54.30
2957;DHT22;1488;51.548;7.222;2023-03-04T15:02:20;21.40;54.30
2957;DHT22;1488;51.548;7.222;2023-03-04T15:04:49;21.40;54.20
2957;DHT22;1488;51.548;7.222;2023-03-04T15:07:21;21.40;54.20
2957;DHT22;1488;51.548;7.222;2023-03-04T15:09:52;21.40;54.30
2957;DHT22;1488;51.548;7.222;2023-03-04T15:12:25;21.40;54.30
2957;DHT22;1488;51.548;7.222;2023-03-04T15:14:55;21.40;54.70
2957;DHT22;1488;51.548;7.222;2023-03-04T15:17:28;21.40;54.50
2957;DHT22;1488;51.548;7.222;2023-03-04T15:20:01;21.40;54.60
2957;DHT22;1488;51.548;7.222;2023-03-04T15:22:29;21.40;54.60
2957;DHT22;1488;51.548;7.222;2023-03-04T15:24:56;21.40;54.60
2957;DHT22;1488;51.548;7.222;2023-03-04T15:27:24;21.40;54.60
2957;DHT22;1488;51.548;7.222;2023-03-04T15:29:52;21.40;54.60
2957;DHT22;1488;51.548;7.222;2023-03-04T15:32:22;21.40;54.60
2957;DHT22;1488;51.548;7.222;2023-03-04T15:34:49;21.40;54.60
2957;DHT22;1488;51.548;7.222;2023-03-04T15:37:19;21.40;54.60
2957;DHT22;1488;51.548;7.222;2023-03-04T15:39:47;21.40;54.60
2957;DHT22;1488;51.548;7.222;2023-03-04T15:42:14;21.40;54.50
2957;DHT22;1488;51.548;7.222;2023-03-04T15:44:43;21.40;54.50
2957;DHT22;1488;51.548;7.222;2023-03-04T15:47:27;21.40;54.60
2957;DHT22;1488;51.548;7.222;2023-03-04T19:41:58;21.90;55.00
2957;DHT22;1488;51.548;7.222;2023-03-04T19:44:25;22.00;55.00
2957;DHT22;1488;51.548;7.222;2023-03-04T19:46:52;22.00;55.00
2957;DHT22;1488;51.548;7.222;2023-03-04T19:49:20;22.00;54.90
2957;DHT22;1488;51.548;7.222;2023-03-04T19:51:49;22.20;55.10
2957;DHT22;1488;51.548;7.222;2023-03-04T19:54:16;22.10;55.00
2957;DHT22;1488;51.548;7.222;2023-03-04T19:56:44;22.10;54.90
2957;DHT22;1488;51.548;7.222;2023-03-04T19:59:15;22.10;54.90
2957;DHT22;1488;51.548;7.222;2023-03-04T20:01:44;22.10;55.00
2957;DHT22;1488;51.548;7.222;2023-03-04T20:04:25;22.10;55.00
2957;DHT22;1488;51.548;7.222;2023-03-04T20:06:52;22.10;55.00
2957;DHT22;1488;51.548;7.222;2023-03-04T20:09:20;22.20;55.10
2957;DHT22;1488;51.548;7.222;2023-03-04T20:11:48;22.20;55.10
2957;DHT22;1488;51.548;7.222;2023-03-04T20:14:17;22.20;55.60
2957;DHT22;1488;51.548;7.222;2023-03-04T20:16:44;22.30;55.10
2957;DHT22;1488;51.548;7.222;2023-03-04T20:19:12;22.40;55.10
2957;DHT22;1488;51.548;7.222;2023-03-04T20:21:39;22.20;55.00
2957;DHT22;1488;51.548;7.222;2023-03-04T20:26:31;22.30;55.10
2957;DHT22;1488;51.548;7.222;2023-03-04T20:28:58;22.30;55.20
2957;DHT22;1488;51.548;7.222;2023-03-04T20:31:33;22.30;55.30
2957;DHT22;1488;51.548;7.222;2023-03-04T20:34:02;22.30;55.20
2957;DHT22;1488;51.548;7.222;2023-03-04T20:36:29;22.30;55.30
2957;DHT22;1488;51.548;7.222;2023-03-04T20:39:00;22.30;55.50
2957;DHT22;1488;51.548;7.222;2023-03-04T20:41:30;22.50;55.70
2957;DHT22;1488;51.548;7.222;2023-03-04T20:43:57;22.40;55.70
2957;DHT22;1488;51.548;7.222;2023-03-04T20:46:30;22.40;55.60
2957;DHT22;1488;51.548;7.222;2023-03-04T20:49:13;22.40;55.70
2957;DHT22;1488;51.548;7.222;2023-03-04T20:51:49;22.40;55.80
2957;DHT22;1488;51.548;7.222;2023-03-04T20:54:21;22.40;55.80
2957;DHT22;1488;51.548;7.222;2023-03-04T20:56:48;22.40;55.90
2957;DHT22;1488;51.548;7.222;2023-03-04T20:59:18;22.40;55.90
2957;DHT22;1488;51.548;7.222;2023-03-04T21:01:47;22.40;55.80
2957;DHT22;1488;51.548;7.222;2023-03-04T21:04:15;22.50;55.90
2957;DHT22;1488;51.548;7.222;2023-03-04T21:06:42;22.40;55.70
2957;DHT22;1488;51.548;7.222;2023-03-04T21:09:14;22.40;55.70
2957;DHT22;1488;51.548;7.222;2023-03-04T21:11:49;22.40;55.70
2957;DHT22;1488;51.548;7.222;2023-03-04T21:14:26;22.40;55.70
2957;DHT22;1488;51.548;7.222;2023-03-04T21:17:05;22.40;55.70
2957;DHT22;1488;51.548;7.222;2023-03-04T21:19:41;22.40;55.70
2957;DHT22;1488;51.548;7.222;2023-03-04T21:22:13;22.40;55.70
2957;DHT22;1488;51.548;7.222;2023-03-04T21:24:41;22.40;55.70
2957;DHT22;1488;51.548;7.222;2023-03-04T21:27:25;22.40;55.80
2957;DHT22;1488;51.548;7.222;2023-03-04T21:29:52;22.40;55.60
2957;DHT22;1488;51.548;7.222;2023-03-04T21:32:25;22.40;55.70
2957;DHT22;1488;51.548;7.222;2023-03-04T21:35:25;22.50;55.80
2957;DHT22;1488;51.548;7.222;2023-03-04T21:37:56;22.50;55.80
2957;DHT22;1488;51.548;7.222;2023-03-04T21:40:26;22.40;55.80
2957;DHT22;1488;51.548;7.222;2023-03-04T21:42:55;22.40;55.70
2957;DHT22;1488;51.548;7.222;2023-03-04T21:45:28;22.40;55.70
2957;DHT22;1488;51.548;7.222;2023-03-04T21:47:58;22.40;55.70
2957;DHT22;1488;51.548;7.222;2023-03-04T21:50:30;22.40;55.70
2957;DHT22;1488;51.548;7.222;2023-03-04T21:53:02;22.40;55.70
2957;DHT22;1488;51.548;7.222;2023-03-04T21:55:30;22.40;55.60
2957;DHT22;1488;51.548;7.222;2023-03-04T21:58:00;22.40;55.60
2957;DHT22;1488;51.548;7.222;2023-03-04T22:00:30;22.40;55.60
2957;DHT22;1488;51.548;7.222;2023-03-04T22:02:59;22.40;55.50
2957;DHT22;1488;51.548;7.222;2023-03-04T22:05:28;22.40;55.60
2957;DHT22;1488;51.548;7.222;2023-03-04T22:08:01;22.20;55.40
2957;DHT22;1488;51.548;7.222;2023-03-04T22:10:31;22.40;55.60
2957;DHT22;1488;51.548;7.222;2023-03-04T22:13:00;22.30;55.50
2957;DHT22;1488;51.548;7.222;2023-03-04T22:15:34;22.30;55.60
2957;DHT22;1488;51.548;7.222;2023-03-04T22:18:07;22.30;55.50
2957;DHT22;1488;51.548;7.222;2023-03-04T22:20:39;22.50;55.70
2957;DHT22;1488;51.548;7.222;2023-03-04T22:23:06;22.30;55.50
2957;DHT22;1488;51.548;7.222;2023-03-04T22:25:37;22.30;55.50
2957;DHT22;1488;51.548;7.222;2023-03-04T22:28:07;22.30;55.40
2957;DHT22;1488;51.548;7.222;2023-03-04T22:30:37;22.30;55.40
2957;DHT22;1488;51.548;7.222;2023-03-04T22:33:10;22.30;55.40
2957;DHT22;1488;51.548;7.222;2023-03-04T22:35:51;22.30;55.40
2957;DHT22;1488;51.548;7.222;2023-03-04T22:38:21;22.40;55.40
2957;DHT22;1488;51.548;7.222;2023-03-04T22:40:50;22.30;55.30
2957;DHT22;1488;51.548;7.222;2023-03-04T22:43:22;22.50;56.00
2957;DHT22;1488;51.548;7.222;2023-03-04T22:45:52;22.30;55.30
2957;DHT22;1488;51.548;7.222;2023-03-04T22:48:25;22.30;55.30
2957;DHT22;1488;51.548;7.222;2023-03-04T22:50:55;22.30;55.30
2957;DHT22;1488;51.548;7.222;2023-03-04T22:53:25;22.30;55.80
2957;DHT22;1488;51.548;7.222;2023-03-04T22:55:59;22.30;55.20
2957;DHT22;1488;51.548;7.222;2023-03-04T22:58:27;22.30;54.80
2957;DHT22;1488;51.548;7.222;2023-03-04T23:00:55;22.30;54.80
2957;DHT22;1488;51.548;7.222;2023-03-04T23:03:35;22.40;54.90
2957;DHT22;1488;51.548;7.222;2023-03-04T23:06:07;22.20;55.00
2957;DHT22;1488;51.548;7.222;2023-03-04T23:08:36;22.20;55.00
2957;DHT22;1488;51.548;7.222;2023-03-04T23:11:14;22.20;55.00
2957;DHT22;1488;51.548;7.222;2023-03-04T23:13:41;22.20;55.00
2957;DHT22;1488;51.548;7.222;2023-03-04T23:16:11;22.20;55.00
2957;DHT22;1488;51.548;7.222;2023-03-04T23:18:41;22.20;55.00
2957;DHT22;1488;51.548;7.222;2023-03-04T23:21:12;22.20;54.90
2957;DHT22;1488;51.548;7.222;2023-03-04T23:23:41;22.10;54.80
2957;DHT22;1488;51.548;7.222;2023-03-04T23:26:16;22.10;54.80
2957;DHT22;1488;51.548;7.222;2023-03-04T23:28:45;22.20;54.90
2957;DHT22;1488;51.548;7.222;2023-03-04T23:31:14;22.10;54.80
2957;DHT22;1488;51.548;7.222;2023-03-04T23:33:46;22.10;54.70
2957;DHT22;1488;51.548;7.222;2023-03-04T23:36:17;22.10;54.70
2957;DHT22;1488;51.548;7.222;2023-03-04T23:38:48;22.30;54.80
2957;DHT22;1488;51.548;7.222;2023-03-04T23:41:23;22.10;54.70
2957;DHT22;1488;51.548;7.222;2023-03-04T23:44:04;22.10;54.70
2957;DHT22;1488;51.548;7.222;2023-03-04T23:46:31;22.10;54.60
2957;DHT22;1488;51.548;7.222;2023-03-04T23:49:00;22.10;54.70
2957;DHT22;1488;51.548;7.222;2023-03-04T23:51:28;22.10;55.20
2957;DHT22;1488;51.548;7.222;2023-03-04T23:53:55;22.10;54.50
2957;DHT22;1488;51.548;7.222;2023-03-04T23:56:24;22.00;54.60
2957;DHT22;1488;51.548;7.222;2023-03-04T23:58:51;22.20;54.70
